Time;durP1;ratioP1;P1;durP2;ratioP2;P2;SDS_P1;SDS_P2;PMS_P1;PMS_P2;Temp;Humidity;BMP_temperature;BMP_pressure;BME280_temperature;BME280_humidity;BME280_pressure;Samples;Min_cycle;Max_cycle;Signal;HPM_P1;HPM_P2
2022/07/24 00:01:33;;;;;;;13.15;10.35;;;;;;;;;;5071554;28;20044;-72
2022/07/24 00:03:58;;;;;;;13.70;10.32;;;;;;;;;;5053672;28;20044;-67
2022/07/24 00:06:24;;;;;;;16.27;11.25;;;;;;;;;;5070697;28;20040;-67
2022/07/24 00:08:49;;;;;;;13.55;11.32;;;;;;;;;;5071535;28;20081;-68
2022/07/24 00:11:15;;;;;;;15.70;11.10;;;;;;;;;;5071697;28;20036;-67
2022/07/24 00:13:40;;;;;;;12.95;10.02;;;;;;;;;;5071307;28;20441;-68
2022/07/24 00:16:06;;;;;;;12.43;10.15;;;;;;;;;;5070558;28;20024;-70
2022/07/24 00:18:32;;;;;;;14.90;10.38;;;;;;;;;;5071128;28;20398;-68
2022/07/24 00:20:57;;;;;;;14.35;10.23;;;;;;;;;;5071466;28;20033;-68
2022/07/24 00:23:24;;;;;;;11.45;9.82;;;;;;;;;;5071326;28;20108;-67
2022/07/24 00:25:50;;;;;;;11.27;9.32;;;;;;;;;;5071634;28;20043;-67
2022/07/24 00:28:15;;;;;;;16.35;9.98;;;;;;;;;;5070431;28;20028;-67
2022/07/24 00:30:41;;;;;;;13.18;9.95;;;;;;;;;;5071317;28;20509;-67
2022/07/24 00:33:06;;;;;;;10.68;9.40;;;;;;;;;;5070954;28;20044;-68
2022/07/24 00:35:32;;;;;;;11.70;9.38;;;;;;;;;;5070529;28;20032;-67
2022/07/24 00:37:57;;;;;;;10.27;9.18;;;;;;;;;;5070378;28;20054;-68
2022/07/24 00:40:24;;;;;;;12.25;9.75;;;;;;;;;;5070693;28;20036;-68
2022/07/24 00:42:50;;;;;;;11.68;9.45;;;;;;;;;;5070506;28;20045;-69
2022/07/24 00:45:15;;;;;;;13.07;9.50;;;;;;;;;;5071188;28;20102;-69
2022/07/24 00:47:41;;;;;;;11.30;9.30;;;;;;;;;;5052835;28;20116;-69
2022/07/24 00:50:06;;;;;;;10.95;9.20;;;;;;;;;;5070061;28;20028;-69
2022/07/24 00:52:32;;;;;;;12.23;8.90;;;;;;;;;;5070514;28;20032;-69
2022/07/24 00:54:57;;;;;;;13.65;9.60;;;;;;;;;;5070949;28;20482;-69
2022/07/24 00:57:23;;;;;;;11.05;8.73;;;;;;;;;;5070900;28;20040;-70
2022/07/24 00:59:48;;;;;;;12.90;9.50;;;;;;;;;;5070012;28;20123;-69
2022/07/24 01:02:14;;;;;;;10.32;9.30;;;;;;;;;;5069948;28;20054;-69
2022/07/24 01:04:39;;;;;;;13.57;10.18;;;;;;;;;;5070755;28;20401;-69
2022/07/24 01:07:06;;;;;;;12.65;9.05;;;;;;;;;;5070637;28;20501;-69
2022/07/24 01:09:33;;;;;;;11.88;9.73;;;;;;;;;;5070649;28;20036;-69
2022/07/24 01:11:59;;;;;;;11.55;9.35;;;;;;;;;;5069491;28;20028;-69
2022/07/24 01:14:25;;;;;;;13.02;9.00;;;;;;;;;;5070388;28;20047;-69
2022/07/24 01:16:51;;;;;;;14.10;9.05;;;;;;;;;;5070280;28;20040;-69
2022/07/24 01:19:16;;;;;;;11.57;9.98;;;;;;;;;;5070440;28;20115;-69
2022/07/24 01:21:49;;;;;;;11.90;10.10;;;;;;;;;;5069141;28;20036;-69
2022/07/24 01:24:15;;;;;;;14.50;10.07;;;;;;;;;;5070063;28;20394;-69
2022/07/24 01:26:41;;;;;;;11.73;10.52;;;;;;;;;;5070369;28;20482;-69
2022/07/24 01:29:07;;;;;;;15.23;10.38;;;;;;;;;;5070205;28;20040;-69
2022/07/24 01:31:32;;;;;;;13.60;10.48;;;;;;;;;;5070067;28;20109;-69
2022/07/24 01:33:57;;;;;;;15.70;10.20;;;;;;;;;;5069175;28;20086;-69
2022/07/24 01:36:23;;;;;;;13.50;9.65;;;;;;;;;;5069983;28;20448;-69
2022/07/24 01:38:48;;;;;;;11.00;9.35;;;;;;;;;;5070135;28;20028;-69
2022/07/24 01:41:14;;;;;;;13.57;9.90;;;;;;;;;;5070176;28;20051;-69
2022/07/24 01:43:39;;;;;;;14.63;10.15;;;;;;;;;;5069008;28;20036;-69
2022/07/24 01:46:05;;;;;;;13.30;10.40;;;;;;;;;;5069534;28;20028;-69
2022/07/24 01:48:30;;;;;;;11.63;10.02;;;;;;;;;;5070097;28;20130;-69
2022/07/24 01:50:56;;;;;;;12.88;10.38;;;;;;;;;;5060042;28;20062;-69
2022/07/24 01:53:21;;;;;;;11.80;10.50;;;;;;;;;;5061470;28;20406;-69
2022/07/24 01:55:49;;;;;;;12.95;10.38;;;;;;;;;;5050675;28;20068;-69
2022/07/24 01:58:15;;;;;;;13.35;10.57;;;;;;;;;;5069655;28;20040;-69
2022/07/24 02:00:40;;;;;;;11.75;10.18;;;;;;;;;;5069907;28;20044;-69
2022/07/24 02:03:06;;;;;;;11.25;9.88;;;;;;;;;;5069407;28;20048;-69
2022/07/24 02:05:32;;;;;;;15.43;11.65;;;;;;;;;;5069333;28;20068;-69
2022/07/24 02:07:59;;;;;;;12.80;10.68;;;;;;;;;;5069909;28;20064;-71
2022/07/24 02:10:25;;;;;;;13.38;10.60;;;;;;;;;;5069891;28;20044;-69
2022/07/24 02:12:50;;;;;;;14.35;10.13;;;;;;;;;;5069722;28;20074;-68
2022/07/24 02:15:15;;;;;;;11.77;10.55;;;;;;;;;;5069686;28;20033;-69
2022/07/24 02:17:48;;;;;;;14.20;9.80;;;;;;;;;;5068956;28;20028;-68
2022/07/24 02:20:14;;;;;;;14.55;10.80;;;;;;;;;;5069644;28;20060;-71
2022/07/24 02:22:40;;;;;;;13.75;10.07;;;;;;;;;;5069516;28;20071;-69
2022/07/24 02:25:06;;;;;;;11.15;9.95;;;;;;;;;;5068810;28;20489;-67
2022/07/24 02:27:32;;;;;;;12.43;11.13;;;;;;;;;;5068843;28;20028;-69
2022/07/24 02:29:57;;;;;;;15.93;12.00;;;;;;;;;;5069251;28;20453;-68
2022/07/24 02:32:23;;;;;;;13.55;11.43;;;;;;;;;;5068859;28;20067;-67
2022/07/24 02:34:49;;;;;;;13.13;11.73;;;;;;;;;;5069608;28;20039;-68
2022/07/24 02:37:14;;;;;;;13.13;11.65;;;;;;;;;;5069589;28;20459;-69
2022/07/24 02:39:39;;;;;;;15.80;11.48;;;;;;;;;;5068828;28;20036;-68
2022/07/24 02:42:05;;;;;;;19.13;11.95;;;;;;;;;;5069244;28;20027;-68
2022/07/24 02:44:30;;;;;;;13.95;11.15;;;;;;;;;;5069650;28;20036;-71
2022/07/24 02:46:56;;;;;;;13.57;10.07;;;;;;;;;;5069452;28;20066;-68
2022/07/24 02:49:21;;;;;;;14.40;11.50;;;;;;;;;;5068406;28;20063;-69
2022/07/24 02:51:47;;;;;;;16.88;11.35;;;;;;;;;;5068982;28;20027;-68
2022/07/24 02:54:12;;;;;;;15.05;11.00;;;;;;;;;;5069532;28;20040;-67
2022/07/24 02:56:38;;;;;;;15.60;10.80;;;;;;;;;;5069525;28;20028;-67
2022/07/24 02:59:03;;;;;;;11.57;10.38;;;;;;;;;;5070791;28;20032;-68
2022/07/24 03:01:29;;;;;;;13.93;11.52;;;;;;;;;;5071811;28;20033;-69
2022/07/24 03:03:54;;;;;;;15.13;12.77;;;;;;;;;;5072683;28;20090;-66
2022/07/24 03:06:20;;;;;;;14.52;13.02;;;;;;;;;;5072709;28;20039;-71
2022/07/24 03:08:45;;;;;;;16.27;12.90;;;;;;;;;;5072793;28;20044;-71
2022/07/24 03:11:10;;;;;;;16.45;12.63;;;;;;;;;;5072077;28;20033;-67
2022/07/24 03:13:36;;;;;;;15.98;12.25;;;;;;;;;;5072252;28;20047;-68
2022/07/24 03:16:01;;;;;;;14.02;11.75;;;;;;;;;;5072649;28;20032;-70
2022/07/24 03:18:27;;;;;;;17.48;11.73;;;;;;;;;;5072631;28;20040;-68
2022/07/24 03:20:52;;;;;;;13.57;11.35;;;;;;;;;;5072331;28;20036;-68
2022/07/24 03:23:17;;;;;;;19.25;11.85;;;;;;;;;;5071573;28;20437;-70
2022/07/24 03:25:43;;;;;;;15.18;11.93;;;;;;;;;;5072457;28;20032;-67
2022/07/24 03:28:09;;;;;;;15.23;11.82;;;;;;;;;;5072479;28;20485;-68
2022/07/24 03:30:34;;;;;;;15.43;12.23;;;;;;;;;;5072218;28;20064;-68
2022/07/24 03:33:00;;;;;;;14.60;12.27;;;;;;;;;;5072182;28;20032;-68
2022/07/24 03:35:25;;;;;;;16.25;11.73;;;;;;;;;;5071080;28;20078;-68
2022/07/24 03:37:50;;;;;;;15.05;12.15;;;;;;;;;;5072316;28;20448;-69
2022/07/24 03:40:16;;;;;;;19.48;12.80;;;;;;;;;;5072264;28;20059;-69
2022/07/24 03:42:41;;;;;;;13.40;11.75;;;;;;;;;;5072071;28;20051;-67
2022/07/24 03:45:07;;;;;;;19.73;14.63;;;;;;;;;;5071205;28;20090;-68
2022/07/24 03:47:33;;;;;;;19.85;14.60;;;;;;;;;;5071818;28;20028;-68
2022/07/24 03:49:58;;;;;;;16.17;12.90;;;;;;;;;;5064095;28;20395;-74
2022/07/24 03:52:24;;;;;;;21.55;15.00;;;;;;;;;;5069375;28;20128;-67
2022/07/24 03:54:49;;;;;;;18.13;13.98;;;;;;;;;;5071936;28;20032;-68
2022/07/24 03:57:15;;;;;;;17.88;13.38;;;;;;;;;;5070887;28;20032;-69
2022/07/24 03:59:40;;;;;;;20.10;13.23;;;;;;;;;;5072065;28;20036;-68
2022/07/24 04:02:06;;;;;;;15.73;12.50;;;;;;;;;;5071305;28;20397;-67
2022/07/24 04:04:31;;;;;;;14.05;12.20;;;;;;;;;;5067332;28;20190;-69
2022/07/24 04:06:56;;;;;;;16.52;12.07;;;;;;;;;;5064837;28;20039;-67
2022/07/24 04:09:22;;;;;;;16.08;12.77;;;;;;;;;;5071294;28;20032;-67
2022/07/24 04:11:47;;;;;;;20.42;12.43;;;;;;;;;;5071686;28;20020;-68
2022/07/24 04:14:13;;;;;;;15.10;12.55;;;;;;;;;;5071703;28;20475;-68
2022/07/24 04:16:38;;;;;;;14.40;12.90;;;;;;;;;;5071460;28;20150;-70
2022/07/24 04:19:04;;;;;;;15.38;12.20;;;;;;;;;;5070425;28;20039;-68
2022/07/24 04:21:29;;;;;;;14.98;12.25;;;;;;;;;;5071115;28;20040;-72
2022/07/24 04:23:54;;;;;;;16.30;13.85;;;;;;;;;;5071291;28;20568;-67
2022/07/24 04:26:20;;;;;;;17.75;12.93;;;;;;;;;;5071347;28;20036;-68
2022/07/24 04:28:45;;;;;;;14.95;13.27;;;;;;;;;;5070530;28;20036;-66
2022/07/24 04:31:11;;;;;;;15.15;12.70;;;;;;;;;;5070910;28;20115;-67
2022/07/24 04:33:36;;;;;;;16.05;12.85;;;;;;;;;;5070975;28;20083;-68
2022/07/24 04:36:04;;;;;;;16.58;12.80;;;;;;;;;;5071010;28;20036;-69
2022/07/24 04:38:30;;;;;;;16.95;11.90;;;;;;;;;;5071123;28;20036;-67
2022/07/24 04:40:55;;;;;;;14.18;11.82;;;;;;;;;;5070054;28;20142;-67
2022/07/24 04:43:21;;;;;;;16.17;12.93;;;;;;;;;;5070732;28;20029;-67
2022/07/24 04:45:46;;;;;;;14.20;12.35;;;;;;;;;;5071007;28;20402;-70
2022/07/24 04:48:11;;;;;;;14.55;12.38;;;;;;;;;;5070915;28;20040;-69
2022/07/24 04:50:37;;;;;;;19.52;13.70;;;;;;;;;;5069690;28;20379;-69
2022/07/24 04:53:02;;;;;;;15.65;12.38;;;;;;;;;;5070372;28;20038;-70
2022/07/24 04:55:28;;;;;;;19.65;12.55;;;;;;;;;;5070836;28;20493;-68
2022/07/24 04:57:53;;;;;;;17.98;12.77;;;;;;;;;;5070614;28;20079;-68
2022/07/24 05:00:19;;;;;;;14.38;11.52;;;;;;;;;;5070698;28;20106;-68
2022/07/24 05:02:44;;;;;;;15.65;12.45;;;;;;;;;;5069404;28;20028;-67
2022/07/24 05:05:10;;;;;;;17.75;11.85;;;;;;;;;;5070462;28;20040;-68
2022/07/24 05:07:35;;;;;;;15.43;12.10;;;;;;;;;;5052336;28;20486;-70
2022/07/24 05:10:01;;;;;;;13.50;11.32;;;;;;;;;;5052797;28;20033;-69
2022/07/24 05:12:27;;;;;;;12.68;11.10;;;;;;;;;;5068955;28;20032;-69
2022/07/24 05:14:52;;;;;;;18.23;10.80;;;;;;;;;;5070475;28;20063;-68
2022/07/24 05:17:18;;;;;;;16.42;10.48;;;;;;;;;;5070213;28;20410;-67
2022/07/24 05:19:43;;;;;;;11.98;10.27;;;;;;;;;;5070441;28;20078;-73
2022/07/24 05:22:09;;;;;;;11.10;9.90;;;;;;;;;;5069690;28;20040;-67
2022/07/24 05:24:34;;;;;;;12.13;9.35;;;;;;;;;;5069508;28;20032;-68
2022/07/24 05:27:00;;;;;;;14.00;9.80;;;;;;;;;;5070204;28;20090;-69
2022/07/24 05:29:25;;;;;;;10.77;9.63;;;;;;;;;;5070316;28;20040;-68
2022/07/24 05:31:54;;;;;;;11.40;9.77;;;;;;;;;;5069907;28;20040;-69
2022/07/24 05:34:22;;;;;;;12.55;9.63;;;;;;;;;;5069345;28;20036;-69
2022/07/24 05:36:48;;;;;;;11.15;9.05;;;;;;;;;;5070144;28;20498;-69
2022/07/24 05:39:14;;;;;;;9.82;8.75;;;;;;;;;;5070311;28;20037;-69
2022/07/24 05:41:40;;;;;;;10.57;8.73;;;;;;;;;;5069724;28;20417;-71
2022/07/24 05:44:06;;;;;;;12.80;8.80;;;;;;;;;;5070325;28;20770;-68
2022/07/24 05:46:31;;;;;;;11.43;8.65;;;;;;;;;;5069035;28;20041;-68
2022/07/24 05:48:57;;;;;;;10.38;8.50;;;;;;;;;;5069980;28;20063;-70
2022/07/24 05:51:22;;;;;;;14.20;8.52;;;;;;;;;;5069963;28;20036;-69
2022/07/24 05:53:48;;;;;;;11.65;9.00;;;;;;;;;;5069874;28;20405;-69
2022/07/24 05:56:13;;;;;;;13.93;8.77;;;;;;;;;;5069172;28;20040;-70
2022/07/24 05:58:39;;;;;;;10.13;7.65;;;;;;;;;;5067903;28;20048;-70
2022/07/24 06:01:04;;;;;;;8.63;7.72;;;;;;;;;;5066184;28;20047;-70
2022/07/24 06:03:30;;;;;;;11.75;8.35;;;;;;;;;;5069162;28;20438;-69
2022/07/24 06:05:55;;;;;;;10.38;8.05;;;;;;;;;;5068958;28;20032;-69
2022/07/24 06:08:21;;;;;;;8.73;7.78;;;;;;;;;;5068416;28;20033;-70
2022/07/24 06:10:46;;;;;;;9.05;8.20;;;;;;;;;;5066191;28;20114;-68
2022/07/24 06:13:12;;;;;;;10.65;8.18;;;;;;;;;;5040304;28;20036;-69
2022/07/24 06:15:37;;;;;;;9.00;7.72;;;;;;;;;;5057037;28;20037;-70
2022/07/24 06:18:03;;;;;;;12.02;8.85;;;;;;;;;;5069830;28;20040;-69
2022/07/24 06:20:28;;;;;;;12.15;7.90;;;;;;;;;;5068242;28;20492;-69
2022/07/24 06:22:54;;;;;;;10.38;8.05;;;;;;;;;;5069436;28;20040;-69
2022/07/24 06:25:19;;;;;;;16.17;8.73;;;;;;;;;;5069536;28;20040;-71
2022/07/24 06:27:47;;;;;;;11.38;8.65;;;;;;;;;;5069005;28;20043;-69
2022/07/24 06:30:21;;;;;;;10.13;7.80;;;;;;;;;;5066517;28;20028;-70
2022/07/24 06:32:47;;;;;;;8.15;7.25;;;;;;;;;;5066927;28;20040;-71
2022/07/24 06:35:14;;;;;;;10.15;7.80;;;;;;;;;;5070662;28;20123;-69
2022/07/24 06:37:39;;;;;;;11.60;8.27;;;;;;;;;;5071257;28;20028;-69
2022/07/24 06:40:05;;;;;;;9.38;8.02;;;;;;;;;;5071289;28;20033;-70
2022/07/24 06:42:31;;;;;;;10.73;8.18;;;;;;;;;;5070119;28;20028;-70
2022/07/24 06:44:56;;;;;;;12.98;8.57;;;;;;;;;;5072565;28;20398;-69
2022/07/24 06:47:22;;;;;;;11.82;9.02;;;;;;;;;;5072708;28;20040;-70
2022/07/24 06:49:47;;;;;;;9.93;7.70;;;;;;;;;;5073113;28;20044;-69
2022/07/24 06:52:13;;;;;;;15.20;7.80;;;;;;;;;;5054020;28;20123;-70
2022/07/24 06:54:38;;;;;;;10.80;7.93;;;;;;;;;;5072691;28;20512;-70
2022/07/24 06:57:04;;;;;;;9.35;7.85;;;;;;;;;;5072686;28;20081;-70
2022/07/24 06:59:29;;;;;;;11.05;8.05;;;;;;;;;;5072754;28;20041;-69
2022/07/24 07:01:54;;;;;;;11.82;8.63;;;;;;;;;;5071735;28;20063;-70
2022/07/24 07:04:20;;;;;;;9.07;7.78;;;;;;;;;;5071738;28;20099;-68
2022/07/24 07:06:45;;;;;;;9.02;7.95;;;;;;;;;;5070123;28;20033;-70
2022/07/24 07:09:11;;;;;;;11.35;7.93;;;;;;;;;;5071382;28;20028;-70
2022/07/24 07:11:36;;;;;;;8.95;8.05;;;;;;;;;;5072247;28;20040;-70
2022/07/24 07:14:02;;;;;;;11.52;8.27;;;;;;;;;;5071373;28;20025;-70
2022/07/24 07:16:28;;;;;;;8.32;7.43;;;;;;;;;;5053944;28;20102;-69
2022/07/24 07:18:53;;;;;;;10.15;8.13;;;;;;;;;;5072647;28;20044;-69
2022/07/24 07:21:19;;;;;;;8.93;7.55;;;;;;;;;;5071827;28;20551;-69
2022/07/24 07:23:44;;;;;;;8.27;7.05;;;;;;;;;;5072149;28;20037;-69
2022/07/24 07:26:10;;;;;;;8.90;7.07;;;;;;;;;;5071583;28;20498;-71
2022/07/24 07:28:35;;;;;;;11.50;6.70;;;;;;;;;;5072038;28;20032;-69
2022/07/24 07:31:00;;;;;;;7.72;6.93;;;;;;;;;;5072192;28;20051;-69
2022/07/24 07:33:26;;;;;;;8.68;7.18;;;;;;;;;;5072075;28;20036;-69
2022/07/24 07:35:52;;;;;;;7.82;7.03;;;;;;;;;;5071068;28;20043;-70
2022/07/24 07:38:18;;;;;;;11.88;7.10;;;;;;;;;;5071473;28;20410;-70
2022/07/24 07:40:43;;;;;;;10.60;7.15;;;;;;;;;;5072168;28;20452;-70
2022/07/24 07:43:09;;;;;;;7.85;7.03;;;;;;;;;;5070574;28;20041;-69
2022/07/24 07:45:34;;;;;;;10.68;7.28;;;;;;;;;;5070998;28;20048;-70
2022/07/24 07:48:00;;;;;;;11.50;6.68;;;;;;;;;;5067738;28;20031;-68
2022/07/24 07:50:25;;;;;;;7.90;6.63;;;;;;;;;;5070327;28;20052;-70
2022/07/24 07:52:51;;;;;;;11.25;7.25;;;;;;;;;;5070821;28;20449;-70
2022/07/24 07:55:16;;;;;;;8.85;6.07;;;;;;;;;;5071066;28;20044;-70
2022/07/24 07:57:43;;;;;;;10.98;6.80;;;;;;;;;;5069783;28;20037;-69
2022/07/24 08:00:10;;;;;;;9.60;7.03;;;;;;;;;;5053137;28;20028;-71
2022/07/24 08:02:38;;;;;;;9.98;7.05;;;;;;;;;;5068561;28;20449;-70
2022/07/24 08:05:05;;;;;;;9.93;6.88;;;;;;;;;;5070676;28;20036;-70
2022/07/24 08:07:30;;;;;;;8.40;6.32;;;;;;;;;;5070695;28;20043;-70
2022/07/24 08:09:56;;;;;;;6.75;6.15;;;;;;;;;;5070192;28;20386;-69
2022/07/24 08:12:21;;;;;;;7.10;6.40;;;;;;;;;;5031080;28;20056;-69
2022/07/24 08:14:46;;;;;;;7.90;6.65;;;;;;;;;;4986299;28;20046;-68
2022/07/24 08:17:12;;;;;;;8.35;7.32;;;;;;;;;;5050670;28;20052;-69
2022/07/24 08:19:38;;;;;;;8.65;6.88;;;;;;;;;;5011973;28;20025;-69
2022/07/24 08:22:04;;;;;;;10.20;7.50;;;;;;;;;;5026910;28;20049;-72
2022/07/24 08:24:32;;;;;;;8.00;7.05;;;;;;;;;;5049638;28;20053;-73
2022/07/24 08:26:58;;;;;;;10.60;6.70;;;;;;;;;;5050395;28;20112;-69
2022/07/24 08:29:25;;;;;;;6.85;6.03;;;;;;;;;;5050473;28;20484;-72
2022/07/24 08:31:51;;;;;;;7.35;6.20;;;;;;;;;;5048507;28;20111;-69
2022/07/24 08:34:16;;;;;;;8.90;6.43;;;;;;;;;;5050144;28;20128;-70
2022/07/24 08:36:45;;;;;;;7.82;6.68;;;;;;;;;;5050179;28;20482;-69
2022/07/24 08:39:12;;;;;;;10.23;6.40;;;;;;;;;;5050285;28;20128;-71
2022/07/24 08:41:38;;;;;;;8.75;6.78;;;;;;;;;;5048851;28;20111;-69
2022/07/24 08:44:05;;;;;;;7.70;6.25;;;;;;;;;;5049997;28;20240;-69
2022/07/24 08:46:31;;;;;;;9.32;7.03;;;;;;;;;;5050379;28;20036;-70
2022/07/24 08:48:57;;;;;;;6.70;6.00;;;;;;;;;;5049919;28;20079;-69
2022/07/24 08:51:31;;;;;;;8.27;6.28;;;;;;;;;;5049467;28;20029;-71
2022/07/24 08:53:56;;;;;;;12.02;6.40;;;;;;;;;;5048342;28;20075;-70
2022/07/24 08:56:22;;;;;;;10.55;6.80;;;;;;;;;;5048976;28;20061;-70
2022/07/24 08:58:48;;;;;;;7.72;5.80;;;;;;;;;;5049888;28;20115;-68
2022/07/24 09:01:13;;;;;;;10.60;6.45;;;;;;;;;;5049675;28;20048;-71
2022/07/24 09:03:44;;;;;;;7.68;6.18;;;;;;;;;;5048928;28;20093;-70
2022/07/24 09:06:11;;;;;;;8.68;6.53;;;;;;;;;;5048860;28;20040;-70
2022/07/24 09:08:43;;;;;;;7.97;6.10;;;;;;;;;;5049179;28;20087;-68
2022/07/24 09:11:09;;;;;;;12.73;5.60;;;;;;;;;;5049598;28;20044;-69
2022/07/24 09:16:24;;;;;;;8.60;5.75;;;;;;;;;;5048532;28;20410;-68
2022/07/24 09:19:03;;;;;;;9.93;6.63;;;;;;;;;;5049661;28;20109;-69
2022/07/24 09:21:32;;;;;;;6.93;5.15;;;;;;;;;;5049036;28;20044;-70
2022/07/24 09:24:02;;;;;;;6.80;5.75;;;;;;;;;;5049443;28;20064;-71
2022/07/24 09:26:45;;;;;;;7.38;5.65;;;;;;;;;;5048864;28;20036;-71
2022/07/24 09:29:12;;;;;;;8.35;5.55;;;;;;;;;;5049580;28;20054;-69
2022/07/24 09:32:00;;;;;;;6.45;5.43;;;;;;;;;;5048935;28;20033;-69
2022/07/24 09:34:28;;;;;;;8.02;5.22;;;;;;;;;;5049359;28;20064;-71
2022/07/24 09:37:00;;;;;;;6.18;5.57;;;;;;;;;;5048457;28;20029;-68
2022/07/24 09:39:27;;;;;;;7.30;5.80;;;;;;;;;;5048461;28;20033;-70
2022/07/24 09:41:55;;;;;;;8.35;5.72;;;;;;;;;;5048991;28;20060;-68
2022/07/24 09:44:23;;;;;;;6.30;5.70;;;;;;;;;;5049045;28;20429;-69
2022/07/24 09:46:56;;;;;;;10.20;5.80;;;;;;;;;;5048831;28;20033;-71
2022/07/24 09:49:21;;;;;;;7.50;5.93;;;;;;;;;;5048100;28;20041;-69
2022/07/24 09:52:11;;;;;;;7.50;5.35;;;;;;;;;;5048987;28;20036;-70
2022/07/24 09:54:40;;;;;;;6.28;5.60;;;;;;;;;;5037833;28;20053;-68
2022/07/24 09:57:25;;;;;;;8.50;6.00;;;;;;;;;;5048579;28;20047;-68
2022/07/24 10:00:00;;;;;;;5.53;5.03;;;;;;;;;;5048078;28;20075;-72
2022/07/24 10:02:32;;;;;;;10.60;6.28;;;;;;;;;;5048527;28;20041;-69
2022/07/24 10:05:02;;;;;;;7.93;5.38;;;;;;;;;;5048912;28;20041;-72
2022/07/24 10:07:28;;;;;;;6.75;5.25;;;;;;;;;;5049338;28;20430;-69
2022/07/24 10:09:57;;;;;;;7.20;5.00;;;;;;;;;;5052367;28;20040;-68
2022/07/24 10:12:29;;;;;;;6.63;5.35;;;;;;;;;;5052485;28;20036;-68
2022/07/24 10:14:56;;;;;;;6.50;5.25;;;;;;;;;;5052822;28;20549;-69
2022/07/24 10:17:32;;;;;;;7.65;6.00;;;;;;;;;;5052912;28;20088;-70
2022/07/24 10:20:03;;;;;;;7.15;5.63;;;;;;;;;;5052925;28;20029;-72
2022/07/24 10:22:46;;;;;;;6.80;5.95;;;;;;;;;;5051650;28;20060;-69
2022/07/24 10:25:16;;;;;;;6.43;5.47;;;;;;;;;;5052870;28;20048;-69
2022/07/24 10:27:47;;;;;;;6.70;5.10;;;;;;;;;;5052853;28;20497;-69
2022/07/24 10:30:12;;;;;;;6.22;4.95;;;;;;;;;;5051899;28;20453;-71
2022/07/24 10:32:38;;;;;;;5.88;5.28;;;;;;;;;;5052245;28;20037;-72
2022/07/24 10:35:24;;;;;;;7.68;5.30;;;;;;;;;;5052619;28;20671;-71
2022/07/24 10:38:16;;;;;;;6.82;5.30;;;;;;;;;;5052512;28;20051;-70
2022/07/24 10:40:42;;;;;;;10.23;5.45;;;;;;;;;;5052608;28;20037;-67
2022/07/24 10:43:10;;;;;;;8.18;5.65;;;;;;;;;;5051495;28;20178;-68
2022/07/24 10:45:38;;;;;;;5.82;5.32;;;;;;;;;;5052655;28;20126;-68
2022/07/24 10:48:28;;;;;;;6.28;5.22;;;;;;;;;;5052371;28;20041;-68
2022/07/24 10:51:13;;;;;;;7.55;4.93;;;;;;;;;;5052420;28;20033;-69
2022/07/24 10:53:39;;;;;;;6.22;5.60;;;;;;;;;;5051275;28;20043;-69
2022/07/24 10:56:20;;;;;;;5.97;4.95;;;;;;;;;;5052297;28;20403;-73
2022/07/24 10:59:09;;;;;;;6.35;5.30;;;;;;;;;;5052367;28;20045;-69
2022/07/24 11:01:44;;;;;;;5.45;4.90;;;;;;;;;;5052003;28;20064;-70
2022/07/24 11:04:18;;;;;;;5.80;5.20;;;;;;;;;;5051498;28;20039;-69
2022/07/24 11:07:07;;;;;;;5.40;4.75;;;;;;;;;;5044714;28;20037;-70
2022/07/24 11:09:54;;;;;;;7.15;4.85;;;;;;;;;;5052109;28;20064;-70
2022/07/24 11:12:31;;;;;;;5.15;4.75;;;;;;;;;;5051544;28;20403;-70
2022/07/24 11:17:47;;;;;;;5.80;4.90;;;;;;;;;;5044541;28;20041;-70
2022/07/24 11:20:15;;;;;;;5.68;4.93;;;;;;;;;;5050978;28;20055;-71
2022/07/24 11:22:49;;;;;;;10.07;5.20;;;;;;;;;;5051513;28;20131;-71
2022/07/24 11:25:18;;;;;;;6.05;4.75;;;;;;;;;;5049794;28;20045;-70
2022/07/24 11:27:50;;;;;;;7.55;4.95;;;;;;;;;;5051380;28;20033;-72
2022/07/24 11:30:17;;;;;;;6.20;5.50;;;;;;;;;;5051496;28;20036;-69
2022/07/24 11:32:43;;;;;;;7.20;5.10;;;;;;;;;;5051713;28;20455;-70
2022/07/24 11:35:08;;;;;;;6.65;4.75;;;;;;;;;;5051406;28;20523;-68
2022/07/24 11:37:39;;;;;;;5.65;5.10;;;;;;;;;;5050597;28;20040;-71
2022/07/24 11:40:08;;;;;;;10.15;5.70;;;;;;;;;;5049685;28;20288;-69
2022/07/24 11:42:35;;;;;;;5.32;4.82;;;;;;;;;;5051895;28;20048;-71
2022/07/24 11:45:01;;;;;;;5.97;5.47;;;;;;;;;;5050779;28;20518;-72
2022/07/24 11:47:27;;;;;;;7.88;5.50;;;;;;;;;;5049556;28;20060;-70
2022/07/24 11:49:56;;;;;;;5.47;4.97;;;;;;;;;;5050147;28;20040;-73
2022/07/24 11:52:24;;;;;;;8.40;4.95;;;;;;;;;;5049953;28;20017;-69
2022/07/24 11:54:55;;;;;;;5.82;5.05;;;;;;;;;;5049956;28;20052;-68
2022/07/24 11:57:22;;;;;;;;;;;;;;;;;;5050078;28;20398;-70
2022/07/24 11:59:49;;;;;;;8.38;5.05;;;;;;;;;;5049868;28;19923;-69
2022/07/24 12:02:15;;;;;;;6.30;5.15;;;;;;;;;;5051475;28;20477;-71
2022/07/24 12:04:42;;;;;;;7.07;5.07;;;;;;;;;;5052035;28;20040;-69
2022/07/24 12:07:25;;;;;;;6.50;5.45;;;;;;;;;;5051675;28;20102;-71
2022/07/24 12:09:57;;;;;;;10.55;5.50;;;;;;;;;;5050629;28;20514;-72
2022/07/24 12:12:39;;;;;;;5.75;5.22;;;;;;;;;;5050884;28;20039;-68
2022/07/24 12:15:11;;;;;;;5.68;5.00;;;;;;;;;;5049499;28;20152;-68
2022/07/24 12:17:59;;;;;;;7.47;4.95;;;;;;;;;;5048486;28;20127;-68
2022/07/24 12:20:31;;;;;;;8.85;4.80;;;;;;;;;;5046377;28;20032;-68
2022/07/24 12:22:59;;;;;;;8.25;4.25;;;;;;;;;;5036954;28;20060;-69
2022/07/24 12:25:25;;;;;;;6.85;5.78;;;;;;;;;;5027915;28;20045;-68
2022/07/24 12:28:02;;;;;;;8.63;5.10;;;;;;;;;;5047101;28;20041;-68
2022/07/24 12:30:30;;;;;;;5.90;5.32;;;;;;;;;;5046612;28;20059;-68
2022/07/24 12:33:17;;;;;;;7.50;4.68;;;;;;;;;;5044671;28;20044;-70
2022/07/24 12:36:00;;;;;;;6.45;5.40;;;;;;;;;;5027238;28;20041;-68
2022/07/24 12:38:54;;;;;;;5.75;4.88;;;;;;;;;;5028858;28;20053;-69
2022/07/24 12:41:22;;;;;;;9.13;4.88;;;;;;;;;;5025367;28;20069;-69
2022/07/24 12:43:55;;;;;;;5.70;5.20;;;;;;;;;;5026963;28;20040;-68
2022/07/24 12:46:24;;;;;;;6.25;4.72;;;;;;;;;;5028141;28;20061;-68
2022/07/24 12:49:00;;;;;;;8.15;5.55;;;;;;;;;;5011187;28;20077;-69
2022/07/24 12:51:26;;;;;;;5.82;5.07;;;;;;;;;;5009952;28;20037;-67
2022/07/24 12:53:55;;;;;;;6.50;4.85;;;;;;;;;;5033298;28;20044;-67
2022/07/24 12:56:22;;;;;;;6.03;4.80;;;;;;;;;;5047533;28;20119;-68
2022/07/24 12:58:47;;;;;;;5.25;4.75;;;;;;;;;;5048193;28;20040;-68
2022/07/24 13:01:12;;;;;;;7.47;4.88;;;;;;;;;;5044830;28;20044;-68
2022/07/24 13:03:38;;;;;;;5.15;4.57;;;;;;;;;;5042531;28;20057;-67
2022/07/24 13:06:04;;;;;;;7.32;5.28;;;;;;;;;;5028293;28;20061;-68
2022/07/24 13:08:29;;;;;;;8.60;4.93;;;;;;;;;;5029016;28;20092;-67
2022/07/24 13:10:55;;;;;;;7.20;5.13;;;;;;;;;;5029781;28;20055;-67
2022/07/24 13:13:21;;;;;;;5.47;4.97;;;;;;;;;;5027747;28;20185;-68
2022/07/24 13:15:46;;;;;;;5.03;4.57;;;;;;;;;;5027983;28;20061;-68
2022/07/24 13:18:12;;;;;;;4.88;4.45;;;;;;;;;;5024484;28;20052;-68
2022/07/24 13:20:37;;;;;;;6.38;5.30;;;;;;;;;;5025526;28;20095;-67
2022/07/24 13:23:02;;;;;;;5.95;5.10;;;;;;;;;;5027415;28;20102;-67
2022/07/24 13:25:28;;;;;;;9.18;5.47;;;;;;;;;;5026574;28;20049;-68
2022/07/24 13:27:53;;;;;;;6.25;5.35;;;;;;;;;;5027404;28;20095;-68
2022/07/24 13:30:19;;;;;;;5.65;4.90;;;;;;;;;;5022957;28;20124;-68
2022/07/24 13:32:44;;;;;;;5.47;4.68;;;;;;;;;;5023194;28;20577;-68
2022/07/24 13:35:10;;;;;;;7.93;5.18;;;;;;;;;;5023669;28;20087;-68
2022/07/24 13:37:35;;;;;;;8.95;5.72;;;;;;;;;;5023889;28;20033;-69
2022/07/24 13:40:02;;;;;;;5.53;5.03;;;;;;;;;;5024840;28;20041;-68
2022/07/24 13:42:28;;;;;;;5.30;4.80;;;;;;;;;;5034850;28;20051;-68
2022/07/24 13:44:53;;;;;;;6.70;5.10;;;;;;;;;;5031482;28;20041;-68
2022/07/24 13:47:19;;;;;;;8.38;5.35;;;;;;;;;;5032016;28;20110;-69
2022/07/24 13:49:44;;;;;;;9.07;5.47;;;;;;;;;;5035580;28;20057;-69
2022/07/24 13:52:10;;;;;;;5.43;4.85;;;;;;;;;;5036344;28;20025;-68
2022/07/24 13:54:35;;;;;;;5.53;4.78;;;;;;;;;;5034639;28;20403;-67
2022/07/24 13:57:03;;;;;;;9.38;5.25;;;;;;;;;;5013261;28;20060;-68
2022/07/24 13:59:28;;;;;;;5.45;4.60;;;;;;;;;;5008274;28;20046;-67
2022/07/24 14:01:54;;;;;;;10.05;4.88;;;;;;;;;;5012679;28;20156;-68
2022/07/24 14:04:20;;;;;;;6.32;5.10;;;;;;;;;;5021885;28;20048;-68
2022/07/24 14:06:45;;;;;;;6.40;5.18;;;;;;;;;;5027936;28;20144;-68
2022/07/24 14:09:11;;;;;;;5.53;5.13;;;;;;;;;;5028065;28;20045;-68
2022/07/24 14:11:36;;;;;;;5.90;5.22;;;;;;;;;;5043399;28;20096;-67
2022/07/24 14:14:02;;;;;;;5.53;5.03;;;;;;;;;;5034442;28;20033;-68
2022/07/24 14:16:27;;;;;;;7.78;5.30;;;;;;;;;;5058314;22;20112;-68
2022/07/24 14:18:53;;;;;;;9.02;5.25;;;;;;;;;;5010278;28;20041;-69
2022/07/24 14:21:18;;;;;;;6.22;5.07;;;;;;;;;;5005701;28;20495;-69
2022/07/24 14:23:43;;;;;;;5.22;4.72;;;;;;;;;;5005688;28;20120;-69
2022/07/24 14:26:09;;;;;;;7.88;5.75;;;;;;;;;;4990862;28;20061;-69
2022/07/24 14:28:34;;;;;;;11.18;5.57;;;;;;;;;;4999500;28;20046;-69
2022/07/24 14:31:00;;;;;;;6.93;4.93;;;;;;;;;;5041271;28;20487;-69
2022/07/24 14:33:25;;;;;;;7.35;5.53;;;;;;;;;;5045384;28;20045;-70
2022/07/24 14:35:51;;;;;;;5.03;4.55;;;;;;;;;;5045135;28;20047;-70
2022/07/24 14:38:16;;;;;;;5.88;5.25;;;;;;;;;;5037812;28;20498;-70
2022/07/24 14:40:42;;;;;;;5.32;4.82;;;;;;;;;;5046736;28;20418;-70